createdAt,value
2018-12-02T00:01:50.624Z,39.47
2018-12-02T00:04:18.312Z,34.93
2018-12-02T00:06:46.067Z,37.63
2018-12-02T00:09:13.824Z,40.10
2018-12-02T00:11:41.604Z,36.87
2018-12-02T00:14:09.351Z,37.63
2018-12-02T00:16:37.120Z,40.47
2018-12-02T00:19:04.956Z,47.10
2018-12-02T00:21:32.623Z,40.03
2018-12-02T00:24:00.342Z,40.00
2018-12-02T00:26:28.067Z,38.17
2018-12-02T00:28:55.828Z,30.23
2018-12-02T00:31:23.482Z,32.27
2018-12-02T00:33:52.189Z,33.33
2018-12-02T00:36:19.988Z,33.80
2018-12-02T00:38:47.748Z,37.30
2018-12-02T00:41:15.463Z,36.00
2018-12-02T00:43:43.131Z,38.27
2018-12-02T00:46:10.880Z,31.67
2018-12-02T00:48:38.563Z,35.23
2018-12-02T00:51:06.329Z,44.13
2018-12-02T00:53:34.014Z,37.30
2018-12-02T00:56:01.593Z,35.93
2018-12-02T00:58:29.350Z,37.37
2018-12-02T01:00:57.059Z,32.47
2018-12-02T01:03:24.827Z,40.87
2018-12-02T01:05:52.512Z,37.13
2018-12-02T01:08:20.304Z,31.60
2018-12-02T01:10:48.031Z,39.60
2018-12-02T01:13:15.772Z,36.70
2018-12-02T01:15:43.485Z,37.80
2018-12-02T01:18:11.203Z,38.33
2018-12-02T01:20:39.121Z,35.40
2018-12-02T01:23:06.879Z,37.90
2018-12-02T01:25:35.095Z,35.07
2018-12-02T01:28:02.812Z,36.47
2018-12-02T01:30:30.571Z,42.20
2018-12-02T01:32:58.340Z,36.10
2018-12-02T01:35:26.155Z,36.30
2018-12-02T01:37:53.859Z,36.03
2018-12-02T01:40:22.263Z,35.07
2018-12-02T01:42:50.347Z,37.87
2018-12-02T01:45:21.616Z,36.20
2018-12-02T01:47:49.319Z,35.30
2018-12-02T01:50:17.514Z,30.07
2018-12-02T01:52:45.800Z,34.27
2018-12-02T01:55:13.513Z,38.80
2018-12-02T01:57:41.175Z,35.57
2018-12-02T02:00:10.128Z,34.00
2018-12-02T02:02:37.815Z,33.07
2018-12-02T02:05:05.528Z,32.77
2018-12-02T02:07:33.307Z,31.80
2018-12-02T02:10:01.049Z,31.57
2018-12-02T02:12:28.780Z,32.80
2018-12-02T02:14:56.443Z,32.90
2018-12-02T02:17:24.140Z,32.43
2018-12-02T02:19:51.859Z,29.33
2018-12-02T02:22:19.552Z,32.57
2018-12-02T02:24:47.296Z,30.70
2018-12-02T02:27:14.988Z,32.30
2018-12-02T02:29:42.703Z,32.23
2018-12-02T02:32:10.429Z,31.23
2018-12-02T02:34:38.169Z,31.93
2018-12-02T02:37:05.931Z,32.90
2018-12-02T02:39:34.211Z,36.00
2018-12-02T02:42:01.969Z,29.30
2018-12-02T02:44:29.661Z,31.40
2018-12-02T02:46:57.320Z,26.50
2018-12-02T02:49:25.092Z,37.10
2018-12-02T02:51:52.800Z,31.93
2018-12-02T02:54:20.478Z,29.80
2018-12-02T02:56:48.172Z,33.33
2018-12-02T02:59:15.911Z,32.87
2018-12-02T03:01:43.706Z,30.53
2018-12-02T03:04:11.453Z,27.73
2018-12-02T03:06:39.183Z,25.27
2018-12-02T03:09:07.424Z,30.60
2018-12-02T03:11:35.243Z,31.00
2018-12-02T03:14:02.950Z,29.97
2018-12-02T03:16:30.647Z,31.30
2018-12-02T03:18:58.386Z,29.17
2018-12-02T03:21:26.107Z,29.87
2018-12-02T03:23:54.791Z,29.50
2018-12-02T03:26:22.531Z,35.93
2018-12-02T03:28:50.244Z,29.90
2018-12-02T03:31:17.971Z,30.93
2018-12-02T03:33:45.732Z,31.03
2018-12-02T03:36:13.436Z,27.47
2018-12-02T03:38:42.214Z,27.77
2018-12-02T03:41:09.977Z,29.37
2018-12-02T03:43:37.790Z,29.97
2018-12-02T03:46:05.840Z,25.90
2018-12-02T03:48:33.604Z,27.87
2018-12-02T03:51:01.360Z,29.30
2018-12-02T03:53:29.108Z,26.20
2018-12-02T03:55:56.835Z,31.03
2018-12-02T03:58:24.550Z,28.13
2018-12-02T04:00:52.263Z,25.87
2018-12-02T04:03:19.968Z,32.10
2018-12-02T04:05:47.751Z,26.67
2018-12-02T04:08:16.476Z,27.67
2018-12-02T04:10:44.239Z,25.47
2018-12-02T04:13:11.980Z,31.80
2018-12-02T04:15:39.995Z,25.30
2018-12-02T04:18:07.665Z,24.83
2018-12-02T04:20:35.423Z,25.87
2018-12-02T04:23:03.212Z,29.70
2018-12-02T04:25:30.960Z,24.13
2018-12-02T04:27:58.721Z,27.50
2018-12-02T04:30:26.408Z,27.00
2018-12-02T04:32:54.128Z,25.13
2018-12-02T04:35:23.188Z,26.40
2018-12-02T04:37:51.912Z,24.20
2018-12-02T04:40:19.709Z,26.80
2018-12-02T04:42:47.449Z,27.97
2018-12-02T04:45:16.524Z,26.00
2018-12-02T04:47:44.272Z,26.43
2018-12-02T04:50:13.353Z,24.10
2018-12-02T04:52:41.084Z,28.10
2018-12-02T04:55:09.094Z,26.00
2018-12-02T04:57:36.795Z,30.60
2018-12-02T05:00:05.595Z,34.70
2018-12-02T05:02:33.322Z,26.40
2018-12-02T05:05:01.101Z,27.40
2018-12-02T05:07:28.806Z,26.40
2018-12-02T05:09:56.531Z,25.30
2018-12-02T05:12:24.335Z,25.93
2018-12-02T05:14:52.076Z,26.90
2018-12-02T05:17:19.832Z,23.40
2018-12-02T05:19:47.575Z,29.60
2018-12-02T05:22:15.267Z,25.53
2018-12-02T05:24:43.924Z,28.20
2018-12-02T05:27:11.640Z,25.27
2018-12-02T05:29:39.384Z,26.17
2018-12-02T05:32:07.139Z,23.50
2018-12-02T05:34:34.935Z,24.00
2018-12-02T05:37:02.697Z,22.23
2018-12-02T05:39:30.408Z,23.70
2018-12-02T05:42:03.599Z,21.60
2018-12-02T05:44:31.343Z,23.50
2018-12-02T05:46:59.031Z,22.77
2018-12-02T05:49:26.711Z,23.70
2018-12-02T05:51:54.443Z,22.93
2018-12-02T05:54:22.131Z,26.40
2018-12-02T05:56:49.883Z,24.60
2018-12-02T05:59:17.551Z,23.73
2018-12-02T06:01:45.250Z,23.97
2018-12-02T06:04:13.018Z,22.77
2018-12-02T06:06:40.652Z,24.00
2018-12-02T06:09:08.924Z,22.70
2018-12-02T06:11:37.641Z,23.00
2018-12-02T06:14:05.388Z,23.63
2018-12-02T06:16:33.156Z,22.37
2018-12-02T06:19:00.908Z,22.53
2018-12-02T06:21:28.688Z,20.13
2018-12-02T06:23:56.432Z,22.00
2018-12-02T06:26:24.212Z,25.13
2018-12-02T06:28:51.917Z,24.53
2018-12-02T06:31:19.634Z,21.80
2018-12-02T06:33:47.362Z,22.97
2018-12-02T06:36:15.055Z,25.40
2018-12-02T06:38:42.824Z,21.63
2018-12-02T06:41:10.550Z,25.67
2018-12-02T06:43:38.283Z,24.73
2018-12-02T06:46:06.028Z,26.03
2018-12-02T06:48:33.747Z,26.27
2018-12-02T06:51:01.461Z,22.43
2018-12-02T06:53:29.215Z,25.27
2018-12-02T06:55:58.292Z,23.07
2018-12-02T06:58:33.399Z,20.87
2018-12-02T07:01:06.082Z,21.93
2018-12-02T07:03:36.123Z,24.97
2018-12-02T07:06:03.863Z,25.07
2018-12-02T07:08:31.558Z,25.10
2018-12-02T07:10:59.303Z,21.17
2018-12-02T07:13:26.982Z,24.80
2018-12-02T07:15:54.719Z,23.50
2018-12-02T07:18:23.050Z,24.80
2018-12-02T07:20:52.373Z,23.87
2018-12-02T07:23:20.126Z,24.50
2018-12-02T07:25:48.512Z,22.70
2018-12-02T07:28:16.232Z,22.20
2018-12-02T07:30:43.972Z,22.83
2018-12-02T07:33:11.688Z,21.03
2018-12-02T07:35:39.419Z,23.10
2018-12-02T07:38:09.312Z,20.63
2018-12-02T07:40:37.567Z,20.10
2018-12-02T07:43:06.014Z,20.03
2018-12-02T07:45:34.029Z,22.70
2018-12-02T07:48:01.459Z,21.07
2018-12-02T07:50:29.159Z,20.87
2018-12-02T07:52:56.831Z,20.17
2018-12-02T07:55:24.579Z,21.83
2018-12-02T07:57:52.247Z,21.47
2018-12-02T08:00:19.954Z,22.00
2018-12-02T08:02:47.724Z,22.47
2018-12-02T08:05:16.017Z,19.93
2018-12-02T08:07:44.284Z,23.30
2018-12-02T08:10:12.790Z,20.90
2018-12-02T08:12:40.519Z,20.87
2018-12-02T08:15:10.756Z,21.47
2018-12-02T08:17:38.523Z,21.60
2018-12-02T08:20:10.788Z,21.97
2018-12-02T08:22:38.499Z,24.37
2018-12-02T08:25:07.240Z,23.73
2018-12-02T08:27:36.000Z,23.03
2018-12-02T08:30:04.316Z,21.43
2018-12-02T08:32:32.068Z,24.20
2018-12-02T08:34:59.851Z,21.33
2018-12-02T08:37:27.531Z,21.37
2018-12-02T08:39:55.211Z,19.53
2018-12-02T08:42:22.956Z,22.87
2018-12-02T08:44:50.674Z,19.87
2018-12-02T08:47:18.349Z,22.60
2018-12-02T08:49:46.084Z,22.40
2018-12-02T08:52:13.847Z,19.33
2018-12-02T08:54:41.629Z,19.43
2018-12-02T08:57:09.392Z,20.97
2018-12-02T08:59:37.111Z,20.53
2018-12-02T09:02:04.817Z,22.17
2018-12-02T09:04:32.561Z,21.50
2018-12-02T09:07:00.308Z,20.87
2018-12-02T09:09:28.634Z,23.47
2018-12-02T09:11:56.008Z,23.67
2018-12-02T09:14:23.847Z,18.37
2018-12-02T09:16:51.588Z,19.97
2018-12-02T09:19:19.320Z,21.63
2018-12-02T09:21:47.017Z,20.67
2018-12-02T09:24:14.747Z,19.20
2018-12-02T09:26:42.476Z,21.07
2018-12-02T09:29:10.166Z,19.80
2018-12-02T09:31:37.904Z,18.60
2018-12-02T09:34:05.611Z,20.57
2018-12-02T09:36:33.302Z,21.93
2018-12-02T09:39:01.055Z,19.17
2018-12-02T09:41:28.816Z,18.30
2018-12-02T09:43:56.547Z,20.93
2018-12-02T09:46:24.246Z,20.60
2018-12-02T09:48:52.005Z,20.33
2018-12-02T09:51:20.687Z,18.80
2018-12-02T09:53:48.472Z,20.33
2018-12-02T09:56:16.232Z,20.00
2018-12-02T09:58:43.946Z,20.70
2018-12-02T10:01:11.696Z,19.30
2018-12-02T10:03:39.424Z,20.50
2018-12-02T10:06:07.169Z,23.30
2018-12-02T10:08:34.924Z,17.87
2018-12-02T10:11:02.606Z,21.43
2018-12-02T10:13:30.356Z,20.60
2018-12-02T10:15:58.051Z,19.13
2018-12-02T10:18:25.796Z,17.90
2018-12-02T10:20:54.027Z,16.57
2018-12-02T10:23:22.939Z,16.80
2018-12-02T10:25:50.715Z,14.60
2018-12-02T10:28:19.397Z,19.47
2018-12-02T10:30:47.099Z,18.57
2018-12-02T10:33:14.839Z,16.13
2018-12-02T10:35:42.588Z,17.00
2018-12-02T10:38:10.288Z,15.93
2018-12-02T10:40:38.272Z,15.47
2018-12-02T10:43:06.219Z,18.13
2018-12-02T10:45:33.999Z,16.40
2018-12-02T10:48:02.234Z,16.27
2018-12-02T10:50:31.006Z,15.10
2018-12-02T10:53:01.359Z,14.10
2018-12-02T10:55:30.192Z,17.40
2018-12-02T10:57:57.879Z,14.83
2018-12-02T11:00:31.241Z,13.07
2018-12-02T11:02:59.014Z,16.70
2018-12-02T11:05:26.755Z,15.17
2018-12-02T11:07:54.774Z,16.03
2018-12-02T11:10:22.455Z,15.73
2018-12-02T11:12:50.115Z,15.47
2018-12-02T11:15:17.777Z,16.50
2018-12-02T11:17:45.799Z,16.83
2018-12-02T11:20:14.876Z,13.90
2018-12-02T11:22:42.652Z,14.97
2018-12-02T11:25:11.872Z,14.37
2018-12-02T11:27:39.695Z,14.60
2018-12-02T11:30:10.815Z,14.60
2018-12-02T11:32:39.631Z,17.10
2018-12-02T11:35:08.471Z,14.67
2018-12-02T11:37:36.168Z,14.50
2018-12-02T11:40:04.688Z,13.77
2018-12-02T11:42:33.399Z,13.63
2018-12-02T11:45:01.089Z,14.40
2018-12-02T11:47:28.797Z,14.77
2018-12-02T11:49:56.560Z,12.80
2018-12-02T11:52:24.247Z,14.67
2018-12-02T11:54:51.923Z,14.03
2018-12-02T11:57:19.625Z,13.80
2018-12-02T11:59:47.347Z,15.77
2018-12-02T12:02:15.049Z,15.50
2018-12-02T12:04:42.834Z,13.00
2018-12-02T12:07:10.536Z,14.20
2018-12-02T12:09:38.220Z,13.37
2018-12-02T12:12:05.995Z,11.13
2018-12-02T12:14:33.744Z,16.53
2018-12-02T12:17:01.458Z,11.73
2018-12-02T12:19:29.168Z,13.00
2018-12-02T12:21:56.819Z,13.50
2018-12-02T12:24:24.540Z,13.50
2018-12-02T12:26:52.296Z,13.60
2018-12-02T12:29:20.076Z,11.93
2018-12-02T12:31:47.767Z,16.37
2018-12-02T12:34:15.496Z,14.37
2018-12-02T12:36:43.216Z,14.73
2018-12-02T12:39:10.867Z,14.30
2018-12-02T12:41:38.567Z,14.27
2018-12-02T12:44:07.676Z,17.60
2018-12-02T12:46:35.387Z,12.67
2018-12-02T12:49:03.100Z,16.07
2018-12-02T12:51:30.811Z,13.63
2018-12-02T12:53:58.475Z,13.30
2018-12-02T12:56:26.168Z,13.70
2018-12-02T12:58:54.353Z,16.70
2018-12-02T13:01:22.083Z,16.60
2018-12-02T13:03:49.826Z,16.53
2018-12-02T13:06:17.511Z,14.20
2018-12-02T13:08:45.170Z,14.87
2018-12-02T13:11:12.908Z,16.67
2018-12-02T13:13:40.621Z,15.70
2018-12-02T13:16:08.354Z,17.50
2018-12-02T13:18:36.052Z,16.97
2018-12-02T13:21:03.819Z,17.80
2018-12-02T13:23:31.598Z,15.50
2018-12-02T13:25:59.324Z,20.17
2018-12-02T13:28:27.119Z,15.30
2018-12-02T13:30:54.858Z,15.80
2018-12-02T13:33:22.623Z,14.53
2018-12-02T13:35:50.389Z,16.20
2018-12-02T13:38:18.151Z,15.63
2018-12-02T13:40:45.872Z,15.63
2018-12-02T13:43:16.272Z,15.37
2018-12-02T13:45:44.410Z,16.23
2018-12-02T13:48:12.153Z,16.83
2018-12-02T13:50:39.871Z,16.63
2018-12-02T13:53:07.602Z,17.07
2018-12-02T13:55:35.273Z,16.63
2018-12-02T13:58:03.024Z,17.60
2018-12-02T14:00:31.094Z,17.60
2018-12-02T14:03:00.643Z,16.90
2018-12-02T14:05:28.348Z,15.20
2018-12-02T14:07:56.020Z,15.37
2018-12-02T14:10:23.735Z,16.73
2018-12-02T14:12:54.934Z,17.43
2018-12-02T14:17:32.135Z,19.13
2018-12-02T14:19:59.875Z,18.50
2018-12-02T14:22:27.617Z,18.40
2018-12-02T14:24:55.319Z,16.33
2018-12-02T14:27:23.144Z,17.53
2018-12-02T14:29:52.540Z,15.50
2018-12-02T14:32:20.708Z,19.33
2018-12-02T14:34:48.788Z,17.40
2018-12-02T14:37:16.566Z,16.20
2018-12-02T14:39:44.308Z,17.07
2018-12-02T14:42:12.053Z,17.43
2018-12-02T14:44:39.791Z,17.23
2018-12-02T14:47:07.485Z,18.80
2018-12-02T14:49:35.241Z,16.03
2018-12-02T14:52:02.886Z,18.53
2018-12-02T14:54:30.653Z,15.73
2018-12-02T14:56:58.340Z,17.60
2018-12-02T14:59:26.061Z,17.57
2018-12-02T15:01:53.730Z,16.60
2018-12-02T15:04:21.390Z,19.60
2018-12-02T15:06:49.095Z,19.53
2018-12-02T15:09:16.808Z,18.17
2018-12-02T15:11:44.760Z,18.40
2018-12-02T15:14:12.484Z,20.07
2018-12-02T15:16:41.227Z,20.30
2018-12-02T15:19:09.560Z,21.40
2018-12-02T15:21:37.268Z,21.73
2018-12-02T15:24:04.976Z,19.93
2018-12-02T15:26:32.719Z,19.60
2018-12-02T15:29:00.582Z,21.73
2018-12-02T15:31:28.219Z,22.80
2018-12-02T15:33:55.878Z,20.80
2018-12-02T15:36:23.572Z,20.27
2018-12-02T15:38:51.342Z,20.87
2018-12-02T15:41:19.119Z,20.97
2018-12-02T15:43:46.791Z,19.90
2018-12-02T15:46:14.524Z,21.93
2018-12-02T15:48:42.271Z,20.80
2018-12-02T15:51:09.968Z,20.17
2018-12-02T15:53:37.708Z,24.70
2018-12-02T15:56:05.691Z,18.63
2018-12-02T15:58:33.442Z,20.90
2018-12-02T16:01:01.149Z,19.60
2018-12-02T16:03:28.851Z,26.40
2018-12-02T16:05:56.592Z,22.70
2018-12-02T16:08:24.290Z,22.90
2018-12-02T16:10:51.977Z,21.90
2018-12-02T16:13:19.702Z,27.00
2018-12-02T16:15:47.400Z,22.73
2018-12-02T16:18:16.055Z,25.47
2018-12-02T16:20:46.367Z,21.47
2018-12-02T16:23:17.818Z,22.80
2018-12-02T16:25:46.521Z,25.20
2018-12-02T16:28:17.769Z,23.73
2018-12-02T16:30:45.564Z,25.90
2018-12-02T16:33:13.289Z,20.83
2018-12-02T16:35:40.988Z,22.40
2018-12-02T16:38:09.579Z,23.77
2018-12-02T16:40:37.353Z,24.27
2018-12-02T16:43:05.664Z,24.93
2018-12-02T16:45:33.384Z,22.57
2018-12-02T16:48:01.153Z,25.83
2018-12-02T16:50:30.252Z,21.57
2018-12-02T16:52:59.571Z,23.50
2018-12-02T16:55:28.352Z,23.43
2018-12-02T16:58:01.503Z,31.37
2018-12-02T17:00:36.568Z,32.13
2018-12-02T17:03:04.311Z,28.20
2018-12-02T17:05:32.104Z,28.00
2018-12-02T17:08:00.840Z,32.57
2018-12-02T17:10:28.564Z,30.33
2018-12-02T17:12:56.355Z,29.87
2018-12-02T17:15:24.064Z,27.10
2018-12-02T17:17:51.783Z,25.43
2018-12-02T17:20:19.507Z,23.53
2018-12-02T17:22:47.219Z,28.00
2018-12-02T17:25:14.895Z,25.47
2018-12-02T17:27:43.511Z,27.43
2018-12-02T17:30:12.528Z,24.87
2018-12-02T17:32:40.239Z,24.77
2018-12-02T17:35:08.028Z,27.83
2018-12-02T17:37:35.764Z,27.00
2018-12-02T17:40:05.603Z,26.07
2018-12-02T17:42:33.356Z,25.50
2018-12-02T17:45:01.107Z,25.73
2018-12-02T17:47:28.850Z,23.53
2018-12-02T17:49:56.581Z,22.37
2018-12-02T17:52:24.249Z,28.40
2018-12-02T17:54:51.971Z,25.43
2018-12-02T17:57:19.707Z,21.23
2018-12-02T17:59:47.580Z,23.10
2018-12-02T18:02:16.342Z,24.20
2018-12-02T18:04:44.023Z,22.03
2018-12-02T18:07:11.703Z,21.70
2018-12-02T18:09:39.439Z,22.63
2018-12-02T18:12:07.120Z,19.20
2018-12-02T18:14:34.828Z,23.30
2018-12-02T18:17:03.558Z,23.27
2018-12-02T18:19:31.258Z,20.00
2018-12-02T18:21:59.018Z,21.90
2018-12-02T18:24:26.772Z,21.80
2018-12-02T18:26:54.537Z,21.40
2018-12-02T18:29:22.307Z,20.60
2018-12-02T18:31:50.040Z,18.63
2018-12-02T18:34:17.731Z,17.57
2018-12-02T18:36:45.512Z,19.73
2018-12-02T18:39:14.160Z,20.50
2018-12-02T18:41:42.801Z,18.53
2018-12-02T18:44:11.399Z,17.77
2018-12-02T18:46:39.083Z,18.00
2018-12-02T18:49:06.804Z,16.70
2018-12-02T18:51:34.523Z,17.67
2018-12-02T18:54:02.216Z,16.83
2018-12-02T18:56:29.951Z,17.23
2018-12-02T18:58:57.698Z,16.70
2018-12-02T19:01:25.448Z,14.83
2018-12-02T19:03:53.193Z,16.20
2018-12-02T19:06:20.899Z,17.00
2018-12-02T19:08:48.612Z,16.07
2018-12-02T19:11:16.411Z,14.57
2018-12-02T19:13:44.116Z,17.93
2018-12-02T19:16:11.870Z,15.80
2018-12-02T19:18:39.743Z,17.23
2018-12-02T19:21:10.892Z,18.60
2018-12-02T19:23:38.648Z,17.27
2018-12-02T19:26:06.385Z,14.90
2018-12-02T19:28:34.119Z,24.70
2018-12-02T19:31:01.897Z,14.70
2018-12-02T19:33:29.612Z,16.47
2018-12-02T19:35:58.459Z,14.03
2018-12-02T19:38:26.218Z,15.20
2018-12-02T19:40:53.945Z,14.43
2018-12-02T19:43:21.666Z,14.07
2018-12-02T19:45:49.950Z,14.50
2018-12-02T19:48:17.675Z,14.30
2018-12-02T19:50:45.484Z,13.67
2018-12-02T19:53:13.131Z,12.80
2018-12-02T19:55:40.852Z,13.07
2018-12-02T19:58:09.323Z,16.17
2018-12-02T20:00:41.100Z,12.13
2018-12-02T20:03:09.131Z,11.20
2018-12-02T20:05:36.896Z,11.30
2018-12-02T20:08:04.971Z,13.23
2018-12-02T20:10:32.744Z,14.53
2018-12-02T20:13:04.408Z,11.03
2018-12-02T20:15:32.143Z,10.77
2018-12-02T20:17:59.896Z,14.10
2018-12-02T20:20:33.499Z,10.30
2018-12-02T20:23:01.175Z,11.83
2018-12-02T20:25:28.915Z,11.17
2018-12-02T20:28:00.121Z,11.43
2018-12-02T20:30:28.292Z,11.80
2018-12-02T20:32:56.028Z,9.63
2018-12-02T20:35:23.783Z,11.70
2018-12-02T20:37:51.499Z,9.90
2018-12-02T20:40:19.878Z,11.67
2018-12-02T20:42:48.017Z,11.10
2018-12-02T20:45:16.201Z,10.07
2018-12-02T20:47:43.907Z,10.87
2018-12-02T20:50:12.223Z,11.70
2018-12-02T20:52:39.984Z,9.47
2018-12-02T20:55:09.323Z,7.90
2018-12-02T20:57:37.031Z,12.90
2018-12-02T21:00:06.663Z,8.23
2018-12-02T21:02:34.383Z,9.37
2018-12-02T21:05:02.096Z,13.33
2018-12-02T21:07:29.840Z,13.47
2018-12-02T21:09:57.630Z,8.30
2018-12-02T21:12:25.331Z,10.50
2018-12-02T21:14:53.042Z,10.53
2018-12-02T21:17:20.786Z,10.87
2018-12-02T21:19:48.481Z,15.07
2018-12-02T21:22:16.212Z,15.90
2018-12-02T21:24:43.921Z,17.80
2018-12-02T21:27:11.669Z,17.73
2018-12-02T21:29:39.399Z,16.60
2018-12-02T21:32:07.149Z,14.10
2018-12-02T21:34:34.896Z,14.27
2018-12-02T21:37:02.571Z,14.20
2018-12-02T21:39:30.296Z,12.17
2018-12-02T21:41:58.043Z,16.40
2018-12-02T21:44:25.786Z,15.63
2018-12-02T21:46:54.173Z,15.63
2018-12-02T21:49:21.920Z,14.67
2018-12-02T21:51:49.587Z,13.80
2018-12-02T21:54:17.255Z,11.77
2018-12-02T21:56:44.999Z,13.27
2018-12-02T21:59:12.685Z,11.20
2018-12-02T22:01:40.438Z,12.60
2018-12-02T22:04:08.183Z,11.83
2018-12-02T22:06:35.862Z,9.73
2018-12-02T22:09:03.859Z,11.87
2018-12-02T22:11:31.636Z,12.67
2018-12-02T22:13:59.351Z,8.70
2018-12-02T22:16:27.018Z,10.63
2018-12-02T22:18:54.699Z,9.17
2018-12-02T22:21:22.463Z,13.50
2018-12-02T22:23:50.779Z,10.73
2018-12-02T22:26:19.528Z,10.67
2018-12-02T22:28:47.268Z,10.50
2018-12-02T22:31:14.928Z,8.50
2018-12-02T22:33:42.599Z,10.50
2018-12-02T22:36:14.191Z,9.43
2018-12-02T22:38:39.030Z,11.20
2018-12-02T22:41:06.723Z,10.87
2018-12-02T22:43:34.368Z,9.80
2018-12-02T22:46:02.057Z,16.23
2018-12-02T22:48:29.817Z,12.13
2018-12-02T22:50:58.500Z,10.70
2018-12-02T22:53:26.255Z,12.80
2018-12-02T22:55:54.055Z,10.37
2018-12-02T22:58:21.792Z,13.03
2018-12-02T23:00:54.975Z,10.60
2018-12-02T23:03:22.752Z,9.77
2018-12-02T23:05:50.516Z,11.30
2018-12-02T23:08:18.268Z,10.37
2018-12-02T23:10:45.945Z,11.93
2018-12-02T23:13:13.683Z,9.90
2018-12-02T23:15:41.455Z,10.43
2018-12-02T23:18:11.628Z,12.90
2018-12-02T23:20:40.355Z,12.23
2018-12-02T23:23:08.055Z,10.73
2018-12-02T23:25:35.771Z,13.73
2018-12-02T23:28:03.489Z,13.53
2018-12-02T23:30:32.252Z,11.17
2018-12-02T23:32:59.983Z,13.43
2018-12-02T23:35:27.660Z,12.70
2018-12-02T23:37:55.368Z,11.57
2018-12-02T23:40:24.138Z,11.50
2018-12-02T23:42:52.160Z,8.43
2018-12-02T23:45:19.876Z,10.40
2018-12-02T23:47:47.638Z,8.57
2018-12-02T23:50:17.868Z,10.77
2018-12-02T23:52:45.683Z,9.47
2018-12-02T23:55:14.232Z,10.20
2018-12-02T23:57:41.922Z,11.60
